Time;durP1;ratioP1;P1;durP2;ratioP2;P2;SDS_P1;SDS_P2;PMS_P1;PMS_P2;Temp;Humidity;BMP_temperature;BMP_pressure;BME280_temperature;BME280_humidity;BME280_pressure;Samples;Min_cycle;Max_cycle;Signal;HPM_P1;HPM_P2
2024/03/01 00:00:53;;;;;;;;;;;;;;;;;;138484;1264;25321;-81
2024/03/01 00:04:14;;;;;;;;;;;;;;;;;;138930;1264;22541;-79
2024/03/01 00:07:15;;;;;;;;;;;;;;;;;;138302;1264;22511;-79
2024/03/01 00:10:16;;;;;;;;;;;;;;;;;;138381;1265;22525;-81
2024/03/01 00:13:17;;;;;;;;;;;;;;;;;;138871;1265;22500;-81
2024/03/01 00:16:19;;;;;;;;;;;;;;;;;;138403;1264;22919;-81
2024/03/01 00:19:20;;;;;;;;;;;;;;;;;;138256;1264;22992;-81
2024/03/01 00:22:24;;;;;;;;;;;;;;;;;;138551;1265;23577;-82
2024/03/01 00:25:25;;;;;;;;;;;;;;;;;;138641;1264;22559;-78
2024/03/01 00:28:26;;;;;;;;;;;;;;;;;;138187;1265;23014;-79
2024/03/01 00:31:27;;;;;;;;;;;;;;;;;;138242;1265;22513;-80
2024/03/01 00:34:28;;;;;;;;;;;;;;;;;;138705;1265;22529;-79
2024/03/01 00:37:29;;;;;;;;;;;;;;;;;;138310;1264;22573;-79
2024/03/01 00:40:30;;;;;;;;;;;;;;;;;;138789;1265;22521;-79
2024/03/01 00:43:33;;;;;;;;;;;;;;;;;;138871;1259;22619;-79
2024/03/01 00:46:34;;;;;;;;;;;;;;;;;;138265;1265;22492;-79
2024/03/01 00:49:35;;;;;;;;;;;;;;;;;;138328;1265;22506;-79
2024/03/01 00:52:37;;;;;;;;;;;;;;;;;;138747;1265;22515;-80
2024/03/01 00:55:38;;;;;;;;;;;;;;;;;;138450;1265;23279;-79
2024/03/01 00:58:40;;;;;;;;;;;;;;;;;;138267;1265;22492;-78
2024/03/01 01:01:41;;;;;;;;;;;;;;;;;;138448;1265;22514;-79
2024/03/01 01:04:42;;;;;;;;;;;;;;;;;;138667;1265;22514;-79
2024/03/01 01:07:43;;;;;;;;;;;;;;;;;;138285;1265;22539;-79
2024/03/01 01:10:44;;;;;;;;;;;;;;;;;;138326;1265;22509;-80
2024/03/01 01:13:45;;;;;;;;;;;;;;;;;;138971;1265;22328;-79
2024/03/01 01:16:46;;;;;;;;;;;;;;;;;;138268;1265;22535;-80
2024/03/01 01:19:48;;;;;;;;;;;;;;;;;;138314;1265;22908;-80
2024/03/01 01:22:49;;;;;;;;;;;;;;;;;;138831;1265;25429;-81
2024/03/01 01:25:50;;;;;;;;;;;;;;;;;;138430;1265;22495;-79
2024/03/01 01:28:53;;;;;;;;;;;;;;;;;;138233;1264;22892;-81
2024/03/01 01:31:54;;;;;;;;;;;;;;;;;;138634;1265;22572;-82
2024/03/01 01:34:55;;;;;;;;;;;;;;;;;;138618;1265;22988;-78
2024/03/01 01:37:57;;;;;;;;;;;;;;;;;;138344;1265;22543;-80
2024/03/01 01:40:58;;;;;;;;;;;;;;;;;;138395;1265;22524;-81
2024/03/01 01:43:59;;;;;;;;;;;;;;;;;;138784;1264;22497;-80
2024/03/01 01:47:00;;;;;;;;;;;;;;;;;;138258;1265;23050;-79
2024/03/01 01:50:01;;;;;;;;;;;;;;;;;;138244;1265;22541;-79
2024/03/01 01:53:03;;;;;;;;;;;;;;;;;;138742;1265;22547;-81
2024/03/01 01:56:04;;;;;;;;;;;;;;;;;;138336;1265;22516;-81
2024/03/01 01:59:05;;;;;;;;;;;;;;;;;;138390;1264;22544;-82
2024/03/01 02:02:08;;;;;;;;;;;;;;;;;;138879;1265;22521;-83
2024/03/01 02:05:10;;;;;;;;;;;;;;;;;;138971;1265;22474;-79
2024/03/01 02:08:11;;;;;;;;;;;;;;;;;;138579;1265;22538;-78
2024/03/01 02:11:12;;;;;;;;;;;;;;;;;;138692;1265;22550;-79
2024/03/01 02:14:13;;;;;;;;;;;;;;;;;;138980;1265;22481;-79
2024/03/01 02:17:14;;;;;;;;;;;;;;;;;;138604;1265;22571;-79
2024/03/01 02:20:15;;;;;;;;;;;;;;;;;;138325;1264;22531;-81
2024/03/01 02:23:16;;;;;;;;;;;;;;;;;;138885;1265;22470;-80
2024/03/01 02:26:17;;;;;;;;;;;;;;;;;;138343;1265;22624;-80
2024/03/01 02:29:19;;;;;;;;;;;;;;;;;;138277;1265;24160;-80
2024/03/01 02:32:20;;;;;;;;;;;;;;;;;;138854;1264;22535;-80
2024/03/01 02:35:24;;;;;;;;;;;;;;;;;;138199;1264;22501;-81
2024/03/01 02:38:25;;;;;;;;;;;;;;;;;;138280;1265;24862;-81
2024/03/01 02:41:26;;;;;;;;;;;;;;;;;;138944;1265;22313;-79
2024/03/01 02:44:27;;;;;;;;;;;;;;;;;;138559;1264;22495;-81
2024/03/01 02:47:28;;;;;;;;;;;;;;;;;;138206;1264;22485;-81
2024/03/01 02:50:29;;;;;;;;;;;;;;;;;;138503;1265;22829;-80
2024/03/01 02:53:31;;;;;;;;;;;;;;;;;;138654;1265;22629;-80
2024/03/01 02:56:32;;;;;;;;;;;;;;;;;;138307;1264;22480;-81
2024/03/01 02:59:33;;;;;;;;;;;;;;;;;;138254;1261;22517;-81
2024/03/01 03:02:34;;;;;;;;;;;;;;;;;;138771;1265;22675;-78
2024/03/01 03:05:35;;;;;;;;;;;;;;;;;;138215;1264;22830;-79
2024/03/01 03:08:37;;;;;;;;;;;;;;;;;;138291;1265;22631;-79
2024/03/01 03:11:38;;;;;;;;;;;;;;;;;;138945;1264;22592;-80
2024/03/01 03:14:39;;;;;;;;;;;;;;;;;;138286;1264;22831;-80
2024/03/01 03:17:40;;;;;;;;;;;;;;;;;;138194;1264;22560;-80
2024/03/01 03:20:41;;;;;;;;;;;;;;;;;;138700;1261;22508;-83
2024/03/01 03:23:42;;;;;;;;;;;;;;;;;;138267;1264;24391;-82
2024/03/01 03:26:43;;;;;;;;;;;;;;;;;;138301;1265;22524;-79
2024/03/01 03:29:45;;;;;;;;;;;;;;;;;;138889;1264;25211;-80
2024/03/01 03:32:46;;;;;;;;;;;;;;;;;;138549;1264;22511;-80
2024/03/01 03:35:47;;;;;;;;;;;;;;;;;;138266;1264;22511;-80
2024/03/01 03:38:48;;;;;;;;;;;;;;;;;;138475;1265;22501;-79
2024/03/01 03:41:49;;;;;;;;;;;;;;;;;;138709;1265;22580;-79
2024/03/01 03:44:51;;;;;;;;;;;;;;;;;;138227;1264;22559;-81
2024/03/01 03:47:52;;;;;;;;;;;;;;;;;;138635;1265;22924;-80
2024/03/01 03:50:54;;;;;;;;;;;;;;;;;;138889;1264;22665;-80
2024/03/01 03:53:55;;;;;;;;;;;;;;;;;;138252;1264;22964;-80
2024/03/01 03:56:56;;;;;;;;;;;;;;;;;;138264;1265;22525;-80
2024/03/01 03:59:58;;;;;;;;;;;;;;;;;;138788;1264;22543;-81
2024/03/01 04:02:59;;;;;;;;;;;;;;;;;;138398;1264;22565;-82
2024/03/01 04:06:00;;;;;;;;;;;;;;;;;;138451;1265;22482;-80
2024/03/01 04:09:02;;;;;;;;;;;;;;;;;;138590;1257;22505;-81
2024/03/01 04:12:05;;;;;;;;;;;;;;;;;;138737;1264;22483;-79
2024/03/01 04:15:09;;;;;;;;;;;;;;;;;;138347;1264;22877;-82
2024/03/01 04:18:10;;;;;;;;;;;;;;;;;;138251;1264;22514;-79
2024/03/01 04:21:12;;;;;;;;;;;;;;;;;;138934;1264;22507;-81
2024/03/01 04:24:13;;;;;;;;;;;;;;;;;;138117;1264;22501;-81
2024/03/01 04:27:14;;;;;;;;;;;;;;;;;;138200;1264;22555;-81
2024/03/01 04:30:15;;;;;;;;;;;;;;;;;;138940;1264;22507;-81
2024/03/01 04:33:16;;;;;;;;;;;;;;;;;;138280;1264;22489;-83
2024/03/01 04:36:18;;;;;;;;;;;;;;;;;;138396;1264;22496;-81
2024/03/01 04:39:19;;;;;;;;;;;;;;;;;;138757;1264;22516;-78
2024/03/01 04:42:20;;;;;;;;;;;;;;;;;;138280;1264;22973;-79
2024/03/01 04:45:22;;;;;;;;;;;;;;;;;;138215;1258;22518;-77
2024/03/01 04:48:23;;;;;;;;;;;;;;;;;;138416;1257;22535;-76
2024/03/01 04:51:24;;;;;;;;;;;;;;;;;;138534;1264;22542;-78
2024/03/01 04:54:25;;;;;;;;;;;;;;;;;;138308;1264;22503;-81
2024/03/01 04:57:27;;;;;;;;;;;;;;;;;;138038;1264;22619;-78
2024/03/01 05:00:28;;;;;;;;;;;;;;;;;;138832;1257;22528;-80
2024/03/01 05:03:29;;;;;;;;;;;;;;;;;;138222;1264;22941;-78
2024/03/01 05:06:30;;;;;;;;;;;;;;;;;;137962;1264;22542;-79
2024/03/01 05:09:32;;;;;;;;;;;;;;;;;;138927;1264;22313;-80
2024/03/01 05:12:33;;;;;;;;;;;;;;;;;;138158;1264;22500;-80
2024/03/01 05:15:34;;;;;;;;;;;;;;;;;;138542;1264;22537;-80
2024/03/01 05:18:35;;;;;;;;;;;;;;;;;;139188;1260;22513;-80
2024/03/01 05:21:36;;;;;;;;;;;;;;;;;;139103;1264;22311;-81
2024/03/01 05:24:37;;;;;;;;;;;;;;;;;;138969;1265;22332;-80
2024/03/01 05:27:39;;;;;;;;;;;;;;;;;;138859;1264;22323;-80
2024/03/01 05:30:48;;;;;;;;;;;;;;;;;;138835;1264;22385;-81
2024/03/01 05:33:51;;;;;;;;;;;;;;;;;;138856;1264;22303;-81
2024/03/01 05:36:52;;;;;;;;;;;;;;;;;;138902;1264;22349;-81
2024/03/01 05:39:53;;;;;;;;;;;;;;;;;;138920;1264;22309;-82
2024/03/01 05:42:55;;;;;;;;;;;;;;;;;;138840;1264;22323;-81
2024/03/01 05:45:56;;;;;;;;;;;;;;;;;;138898;1264;23067;-81
2024/03/01 05:48:57;;;;;;;;;;;;;;;;;;138938;1264;22315;-81
2024/03/01 05:51:58;;;;;;;;;;;;;;;;;;138929;1264;22521;-82
2024/03/01 05:54:59;;;;;;;;;;;;;;;;;;138934;1264;22745;-80
2024/03/01 05:58:01;;;;;;;;;;;;;;;;;;138844;1264;22516;-81
2024/03/01 06:01:04;;;;;;;;;;;;;;;;;;138614;1264;22510;-81
2024/03/01 06:04:10;;;;;;;;;;;;;;;;;;138939;1264;22268;-82
2024/03/01 06:07:11;;;;;;;;;;;;;;;;;;138928;1264;22800;-83
2024/03/01 06:10:12;;;;;;;;;;;;;;;;;;138900;1264;22313;-82
2024/03/01 06:13:13;;;;;;;;;;;;;;;;;;138971;1264;23264;-83
2024/03/01 06:16:14;;;;;;;;;;;;;;;;;;138905;1264;22306;-81
2024/03/01 06:19:17;;;;;;;;;;;;;;;;;;138942;1264;22365;-82
2024/03/01 06:22:18;;;;;;;;;;;;;;;;;;138986;1264;22308;-82
2024/03/01 06:25:19;;;;;;;;;;;;;;;;;;138939;1264;22301;-82
2024/03/01 06:28:20;;;;;;;;;;;;;;;;;;138901;1264;22368;-83
2024/03/01 06:31:21;;;;;;;;;;;;;;;;;;138799;1264;22619;-82
2024/03/01 06:34:23;;;;;;;;;;;;;;;;;;138920;1264;22273;-82
2024/03/01 06:37:24;;;;;;;;;;;;;;;;;;138891;1264;22750;-81
2024/03/01 06:40:25;;;;;;;;;;;;;;;;;;138962;1264;22323;-82
2024/03/01 06:43:30;;;;;;;;;;;;;;;;;;138929;1264;22518;-84
2024/03/01 06:46:31;;;;;;;;;;;;;;;;;;138710;1264;22508;-85
2024/03/01 06:49:35;;;;;;;;;;;;;;;;;;138915;1264;22309;-82
2024/03/01 06:52:58;;;;;;;;;;;;;;;;;;133783;1304;544101;-82
2024/03/01 06:56:00;;;;;;;;;;;;;;;;;;137085;1274;22886;-82
2024/03/01 06:59:04;;;;;;;;;;;;;;;;;;137294;1274;22499;-81
2024/03/01 07:02:08;;;;;;;;;;;;;;;;;;137119;1274;22493;-82
2024/03/01 07:05:11;;;;;;;;;;;;;;;;;;134966;1272;2817046;-82
2024/03/01 07:08:14;;;;;;;;;;;;;;;;;;137614;1272;22229;-81
2024/03/01 07:11:16;;;;;;;;;;;;;;;;;;137575;1272;22286;-82
2024/03/01 07:14:21;;;;;;;;;;;;;;;;;;137286;1272;22518;-81
2024/03/01 07:17:24;;;;;;;;;;;;;;;;;;137568;1265;22414;-80
2024/03/01 07:20:26;;;;;;;;;;;;;;;;;;137634;1272;22398;-82
2024/03/01 07:23:29;;;;;;;;;;;;;;;;;;137227;1272;22549;-82
2024/03/01 07:26:31;;;;;;;;;;;;;;;;;;137247;1272;22565;-82
2024/03/01 07:29:35;;;;;;;;;;;;;;;;;;137494;1272;23292;-82
2024/03/01 07:32:38;;;;;;;;;;;;;;;;;;137632;1272;22331;-81
2024/03/01 07:35:40;;;;;;;;;;;;;;;;;;137551;1272;22385;-81
2024/03/01 07:38:43;;;;;;;;;;;;;;;;;;137581;1272;22310;-82
2024/03/01 07:41:45;;;;;;;;;;;;;;;;;;137237;1272;23040;-81
2024/03/01 07:44:50;;;;;;;;;;;;;;;;;;137610;1272;23056;-81
2024/03/01 07:47:52;;;;;;;;;;;;;;;;;;137622;1272;22365;-82
2024/03/01 07:50:56;;;;;;;;;;;;;;;;;;137249;1272;22552;-81
2024/03/01 07:53:58;;;;;;;;;;;;;;;;;;137421;1272;22898;-81
2024/03/01 07:57:01;;;;;;;;;;;;;;;;;;137628;1272;22217;-82
2024/03/01 08:00:04;;;;;;;;;;;;;;;;;;137572;1272;22522;-82
2024/03/01 08:03:07;;;;;;;;;;;;;;;;;;137454;1272;22561;-82
2024/03/01 08:06:10;;;;;;;;;;;;;;;;;;137423;1272;22543;-82
2024/03/01 08:09:13;;;;;;;;;;;;;;;;;;137329;1272;22476;-81
2024/03/01 08:12:17;;;;;;;;;;;;;;;;;;137659;1272;22317;-78
2024/03/01 08:15:22;;;;;;;;;;;;;;;;;;137631;1272;22338;-82
2024/03/01 08:18:25;;;;;;;;;;;;;;;;;;137532;1272;22327;-82
2024/03/01 08:21:28;;;;;;;;;;;;;;;;;;137476;1272;22470;-80
2024/03/01 08:24:31;;;;;;;;;;;;;;;;;;137517;1272;22384;-81
2024/03/01 08:27:37;;;;;;;;;;;;;;;;;;137655;1270;22290;-83
2024/03/01 08:30:41;;;;;;;;;;;;;;;;;;137256;1272;22575;-82
2024/03/01 08:33:44;;;;;;;;;;;;;;;;;;137652;1271;22319;-80
2024/03/01 08:36:48;;;;;;;;;;;;;;;;;;137598;1272;22333;-83
2024/03/01 08:39:53;;;;;;;;;;;;;;;;;;137601;1272;22327;-82
2024/03/01 08:42:55;;;;;;;;;;;;;;;;;;137603;1272;22345;-81
2024/03/01 08:45:58;;;;;;;;;;;;;;;;;;137563;1272;22846;-81
2024/03/01 08:49:03;;;;;;;;;;;;;;;;;;137589;1272;22320;-80
2024/03/01 08:52:06;;;;;;;;;;;;;;;;;;137550;1272;22558;-80
2024/03/01 08:55:11;;;;;;;;;;;;;;;;;;137576;1272;22480;-82
2024/03/01 08:58:19;;;;;;;;;;;;;;;;;;137590;1272;22316;-82
2024/03/01 09:01:26;;;;;;;;;;;;;;;;;;137591;1272;22819;-80
2024/03/01 09:04:31;;;;;;;;;;;;;;;;;;137445;1272;22813;-83
2024/03/01 09:07:34;;;;;;;;;;;;;;;;;;137622;1272;22306;-82
2024/03/01 09:10:37;;;;;;;;;;;;;;;;;;137574;1272;22266;-83
2024/03/01 09:13:47;;;;;;;;;;;;;;;;;;137575;1272;22405;-83
2024/03/01 09:16:51;;;;;;;;;;;;;;;;;;137577;1267;22281;-82
2024/03/01 09:19:53;;;;;;;;;;;;;;;;;;137581;1272;22695;-83
2024/03/01 09:23:05;;;;;;;;;;;;;;;;;;137460;1272;22531;-82
2024/03/01 09:26:08;;;;;;;;;;;;;;;;;;137524;1272;22263;-80
2024/03/01 09:29:11;;;;;;;;;;;;;;;;;;137523;1272;22260;-78
2024/03/01 09:32:14;;;;;;;;;;;;;;;;;;137540;1272;22323;-81
2024/03/01 09:35:17;;;;;;;;;;;;;;;;;;137593;1268;22270;-81
2024/03/01 09:38:23;;;;;;;;;;;;;;;;;;137610;1272;22320;-82
2024/03/01 09:41:26;;;;;;;;;;;;;;;;;;137576;1267;22262;-81
2024/03/01 09:44:29;;;;;;;;;;;;;;;;;;137600;1272;22336;-81
2024/03/01 09:47:34;;;;;;;;;;;;;;;;;;137549;1272;22324;-81
2024/03/01 09:50:36;;;;;;;;;;;;;;;;;;137584;1272;22601;-79
2024/03/01 09:53:39;;;;;;;;;;;;;;;;;;137576;1272;22787;-84
2024/03/01 09:56:42;;;;;;;;;;;;;;;;;;137590;1272;22888;-81
2024/03/01 09:59:44;;;;;;;;;;;;;;;;;;137626;1272;22368;-82
2024/03/01 10:02:47;;;;;;;;;;;;;;;;;;137572;1267;22377;-82
2024/03/01 10:05:49;;;;;;;;;;;;;;;;;;137583;1269;22421;-82
2024/03/01 10:08:52;;;;;;;;;;;;;;;;;;137609;1272;22294;-81
2024/03/01 10:11:54;;;;;;;;;;;;;;;;;;137657;1272;22418;-81
2024/03/01 10:14:57;;;;;;;;;;;;;;;;;;137614;1267;22342;-81
2024/03/01 10:18:01;;;;;;;;;;;;;;;;;;137583;1261;22501;-82
2024/03/01 10:21:04;;;;;;;;;;;;;;;;;;137639;1272;22371;-82
2024/03/01 10:24:07;;;;;;;;;;;;;;;;;;137661;1272;22237;-82
2024/03/01 10:27:10;;;;;;;;;;;;;;;;;;137562;1272;22500;-79
2024/03/01 10:30:12;;;;;;;;;;;;;;;;;;137547;1272;22325;-79
2024/03/01 10:33:15;;;;;;;;;;;;;;;;;;137606;1272;22435;-78
2024/03/01 10:36:18;;;;;;;;;;;;;;;;;;137675;1272;22326;-81
2024/03/01 10:39:20;;;;;;;;;;;;;;;;;;137621;1272;22396;-82
2024/03/01 10:42:25;;;;;;;;;;;;;;;;;;137617;1272;22452;-80
2024/03/01 10:45:27;;;;;;;;;;;;;;;;;;137662;1272;22299;-81
2024/03/01 10:48:30;;;;;;;;;;;;;;;;;;137409;1272;22559;-80
2024/03/01 10:51:32;;;;;;;;;;;;;;;;;;137527;1272;22527;-82
2024/03/01 10:54:35;;;;;;;;;;;;;;;;;;137602;1272;22492;-81
2024/03/01 10:57:38;;;;;;;;;;;;;;;;;;137627;1272;22511;-83
2024/03/01 11:00:41;;;;;;;;;;;;;;;;;;137457;1272;22533;-81
2024/03/01 11:03:45;;;;;;;;;;;;;;;;;;137529;1272;22574;-82
2024/03/01 11:06:48;;;;;;;;;;;;;;;;;;137666;1272;22416;-81
2024/03/01 11:09:50;;;;;;;;;;;;;;;;;;137647;1272;22278;-80
2024/03/01 11:12:53;;;;;;;;;;;;;;;;;;137606;1272;22322;-80
2024/03/01 11:15:55;;;;;;;;;;;;;;;;;;137670;1272;22367;-80
2024/03/01 11:18:59;;;;;;;;;;;;;;;;;;137648;1272;22395;-83
2024/03/01 11:22:01;;;;;;;;;;;;;;;;;;137638;1272;22330;-81
2024/03/01 11:25:04;;;;;;;;;;;;;;;;;;137639;1272;22343;-82
2024/03/01 11:28:08;;;;;;;;;;;;;;;;;;137568;1267;22313;-81
2024/03/01 11:31:11;;;;;;;;;;;;;;;;;;137611;1272;22442;-81
2024/03/01 11:34:13;;;;;;;;;;;;;;;;;;137569;1267;22388;-82
2024/03/01 11:37:16;;;;;;;;;;;;;;;;;;137212;1272;22510;-83
2024/03/01 11:40:19;;;;;;;;;;;;;;;;;;137229;1272;22511;-82
2024/03/01 11:43:22;;;;;;;;;;;;;;;;;;137406;1272;22497;-81
2024/03/01 11:46:25;;;;;;;;;;;;;;;;;;137275;1272;22513;-81
2024/03/01 11:49:28;;;;;;;;;;;;;;;;;;137293;1272;24269;-83
2024/03/01 11:52:30;;;;;;;;;;;;;;;;;;137562;1272;22543;-82
2024/03/01 11:55:33;;;;;;;;;;;;;;;;;;137682;1272;22306;-81
2024/03/01 11:58:36;;;;;;;;;;;;;;;;;;137640;1270;22283;-82
2024/03/01 12:01:38;;;;;;;;;;;;;;;;;;137660;1272;22366;-81
2024/03/01 12:04:41;;;;;;;;;;;;;;;;;;137651;1272;22286;-80
2024/03/01 12:07:44;;;;;;;;;;;;;;;;;;137617;1272;22335;-82
2024/03/01 12:10:46;;;;;;;;;;;;;;;;;;137620;1272;22505;-81
2024/03/01 12:13:49;;;;;;;;;;;;;;;;;;137592;1272;22265;-81
2024/03/01 12:16:51;;;;;;;;;;;;;;;;;;137593;1272;22359;-81
2024/03/01 12:19:56;;;;;;;;;;;;;;;;;;137601;1272;22455;-81
2024/03/01 12:22:58;;;;;;;;;;;;;;;;;;137592;1272;22358;-83
2024/03/01 12:26:01;;;;;;;;;;;;;;;;;;137623;1272;22342;-80
2024/03/01 12:29:04;;;;;;;;;;;;;;;;;;137520;1272;22447;-81
2024/03/01 12:32:07;;;;;;;;;;;;;;;;;;137566;1272;22876;-79
2024/03/01 12:35:13;;;;;;;;;;;;;;;;;;137565;1264;22273;-81
2024/03/01 12:38:16;;;;;;;;;;;;;;;;;;137561;1272;22362;-81
2024/03/01 12:41:19;;;;;;;;;;;;;;;;;;137486;1267;22473;-81
2024/03/01 12:44:21;;;;;;;;;;;;;;;;;;137549;1272;22318;-76
2024/03/01 12:47:24;;;;;;;;;;;;;;;;;;137568;1272;22283;-80
2024/03/01 12:50:26;;;;;;;;;;;;;;;;;;137602;1272;22396;-77
2024/03/01 12:53:29;;;;;;;;;;;;;;;;;;137607;1272;22327;-79
2024/03/01 12:56:31;;;;;;;;;;;;;;;;;;137609;1272;23189;-76
2024/03/01 12:59:34;;;;;;;;;;;;;;;;;;137626;1272;23126;-77
2024/03/01 13:02:36;;;;;;;;;;;;;;;;;;137575;1272;22414;-77
2024/03/01 13:05:39;;;;;;;;;;;;;;;;;;137605;1272;22803;-77
2024/03/01 13:08:45;;;;;;;;;;;;;;;;;;137551;1272;22287;-74
2024/03/01 13:11:48;;;;;;;;;;;;;;;;;;137532;1272;22348;-76
2024/03/01 13:14:50;;;;;;;;;;;;;;;;;;137535;1272;22340;-77
2024/03/01 13:17:53;;;;;;;;;;;;;;;;;;137522;1272;22318;-76
2024/03/01 13:20:55;;;;;;;;;;;;;;;;;;137533;1268;22290;-76
2024/03/01 13:23:58;;;;;;;;;;;;;;;;;;137532;1272;22734;-77
2024/03/01 13:27:00;;;;;;;;;;;;;;;;;;137562;1272;22274;-76
2024/03/01 13:30:04;;;;;;;;;;;;;;;;;;137591;1272;22356;-75
2024/03/01 13:33:08;;;;;;;;;;;;;;;;;;137576;1272;22391;-75
2024/03/01 13:36:15;;;;;;;;;;;;;;;;;;137563;1272;22484;-75
2024/03/01 13:39:17;;;;;;;;;;;;;;;;;;137583;1272;22358;-77
2024/03/01 13:42:20;;;;;;;;;;;;;;;;;;137643;1272;22318;-78
2024/03/01 13:45:22;;;;;;;;;;;;;;;;;;137611;1272;22731;-80
2024/03/01 13:48:25;;;;;;;;;;;;;;;;;;137568;1272;23116;-78
2024/03/01 13:51:27;;;;;;;;;;;;;;;;;;137625;1272;22404;-78
2024/03/01 13:54:30;;;;;;;;;;;;;;;;;;137567;1272;22951;-79
2024/03/01 13:57:32;;;;;;;;;;;;;;;;;;137614;1272;22332;-78
2024/03/01 14:00:35;;;;;;;;;;;;;;;;;;137618;1272;22800;-79
2024/03/01 14:03:38;;;;;;;;;;;;;;;;;;137594;1272;22449;-78
2024/03/01 14:06:41;;;;;;;;;;;;;;;;;;137613;1272;22643;-78
2024/03/01 14:09:43;;;;;;;;;;;;;;;;;;137583;1272;22673;-80
2024/03/01 14:12:46;;;;;;;;;;;;;;;;;;137538;1272;22818;-79
2024/03/01 14:15:48;;;;;;;;;;;;;;;;;;137533;1272;23004;-82
2024/03/01 14:18:51;;;;;;;;;;;;;;;;;;137560;1272;22308;-77
2024/03/01 14:21:53;;;;;;;;;;;;;;;;;;137493;1272;22320;-77
2024/03/01 14:24:57;;;;;;;;;;;;;;;;;;137522;1272;22311;-76
2024/03/01 14:27:59;;;;;;;;;;;;;;;;;;137510;1272;22345;-75
2024/03/01 14:31:02;;;;;;;;;;;;;;;;;;137552;1272;22416;-76
2024/03/01 14:34:05;;;;;;;;;;;;;;;;;;137577;1266;22286;-75
2024/03/01 14:37:08;;;;;;;;;;;;;;;;;;137559;1272;22765;-76
2024/03/01 14:40:11;;;;;;;;;;;;;;;;;;137603;1272;22318;-77
2024/03/01 14:43:14;;;;;;;;;;;;;;;;;;137584;1272;22334;-76
2024/03/01 14:46:16;;;;;;;;;;;;;;;;;;137636;1260;22810;-76
2024/03/01 14:49:19;;;;;;;;;;;;;;;;;;137584;1272;22705;-77
2024/03/01 14:52:21;;;;;;;;;;;;;;;;;;137595;1272;22386;-76
2024/03/01 14:55:24;;;;;;;;;;;;;;;;;;137577;1272;22812;-75
2024/03/01 14:58:26;;;;;;;;;;;;;;;;;;137536;1272;22501;-76
2024/03/01 15:01:28;;;;;;;;;;;;;;;;;;137581;1272;23085;-76
2024/03/01 15:04:33;;;;;;;;;;;;;;;;;;137626;1272;22552;-76
2024/03/01 15:07:35;;;;;;;;;;;;;;;;;;137670;1272;22275;-77
2024/03/01 15:10:38;;;;;;;;;;;;;;;;;;137575;1272;22468;-78
2024/03/01 15:13:41;;;;;;;;;;;;;;;;;;137674;1272;22332;-78
2024/03/01 15:16:44;;;;;;;;;;;;;;;;;;137656;1272;22372;-76
2024/03/01 15:19:46;;;;;;;;;;;;;;;;;;137686;1272;22615;-78
2024/03/01 15:22:49;;;;;;;;;;;;;;;;;;137632;1272;23018;-77
2024/03/01 15:25:51;;;;;;;;;;;;;;;;;;137590;1260;23274;-78
2024/03/01 15:28:53;;;;;;;;;;;;;;;;;;137578;1272;22507;-79
2024/03/01 15:31:56;;;;;;;;;;;;;;;;;;137634;1272;23082;-77
2024/03/01 15:34:58;;;;;;;;;;;;;;;;;;137536;1272;23038;-78
2024/03/01 15:38:01;;;;;;;;;;;;;;;;;;137590;1272;22493;-77
2024/03/01 15:41:04;;;;;;;;;;;;;;;;;;137675;1272;22262;-77
2024/03/01 15:44:07;;;;;;;;;;;;;;;;;;137671;1272;22331;-77
2024/03/01 15:47:09;;;;;;;;;;;;;;;;;;137665;1272;22416;-77
2024/03/01 15:50:12;;;;;;;;;;;;;;;;;;137636;1272;22432;-78
2024/03/01 15:53:17;;;;;;;;;;;;;;;;;;137594;1272;22419;-76
2024/03/01 15:56:20;;;;;;;;;;;;;;;;;;137557;1272;22343;-77
2024/03/01 15:59:23;;;;;;;;;;;;;;;;;;137570;1272;22313;-75
2024/03/01 16:02:28;;;;;;;;;;;;;;;;;;137609;1272;22395;-76
2024/03/01 16:05:30;;;;;;;;;;;;;;;;;;137618;1272;22316;-77
2024/03/01 16:08:33;;;;;;;;;;;;;;;;;;137614;1272;22322;-77
2024/03/01 16:11:35;;;;;;;;;;;;;;;;;;137594;1272;22259;-77
2024/03/01 16:14:38;;;;;;;;;;;;;;;;;;137615;1272;22502;-77
2024/03/01 16:17:40;;;;;;;;;;;;;;;;;;137618;1272;22627;-77
2024/03/01 16:20:43;;;;;;;;;;;;;;;;;;137670;1271;22279;-77
2024/03/01 16:23:47;;;;;;;;;;;;;;;;;;137602;1272;22774;-77
2024/03/01 16:26:49;;;;;;;;;;;;;;;;;;137613;1272;22729;-78
2024/03/01 16:29:52;;;;;;;;;;;;;;;;;;137611;1272;22362;-78
2024/03/01 16:32:55;;;;;;;;;;;;;;;;;;137595;1272;22501;-78
2024/03/01 16:35:57;;;;;;;;;;;;;;;;;;137634;1272;22883;-78
2024/03/01 16:39:00;;;;;;;;;;;;;;;;;;137554;1271;22509;-77
2024/03/01 16:42:04;;;;;;;;;;;;;;;;;;137509;1272;23005;-78
2024/03/01 16:45:06;;;;;;;;;;;;;;;;;;137640;1272;22315;-78
2024/03/01 16:48:09;;;;;;;;;;;;;;;;;;137531;1272;22521;-77
2024/03/01 16:51:11;;;;;;;;;;;;;;;;;;137631;1272;22384;-77
2024/03/01 16:54:14;;;;;;;;;;;;;;;;;;137659;1272;22371;-77
2024/03/01 16:57:16;;;;;;;;;;;;;;;;;;137578;1272;22469;-77
2024/03/01 17:00:19;;;;;;;;;;;;;;;;;;137609;1272;22334;-77
2024/03/01 17:03:21;;;;;;;;;;;;;;;;;;137580;1272;22366;-76
2024/03/01 17:06:24;;;;;;;;;;;;;;;;;;137552;1272;22323;-78
2024/03/01 17:09:26;;;;;;;;;;;;;;;;;;137638;1272;22392;-78
2024/03/01 17:12:29;;;;;;;;;;;;;;;;;;137613;1272;22343;-80
2024/03/01 17:15:31;;;;;;;;;;;;;;;;;;137617;1272;22371;-77
2024/03/01 17:18:34;;;;;;;;;;;;;;;;;;137635;1272;22504;-78
2024/03/01 17:21:41;;;;;;;;;;;;;;;;;;137539;1272;22533;-78
2024/03/01 17:24:46;;;;;;;;;;;;;;;;;;137620;1272;22504;-77
2024/03/01 17:27:48;;;;;;;;;;;;;;;;;;137399;1265;22483;-78
2024/03/01 17:30:51;;;;;;;;;;;;;;;;;;137611;1272;22542;-80
2024/03/01 17:33:54;;;;;;;;;;;;;;;;;;137629;1272;22812;-77
2024/03/01 17:36:57;;;;;;;;;;;;;;;;;;137596;1272;22763;-77
2024/03/01 17:39:59;;;;;;;;;;;;;;;;;;137617;1272;22249;-78
2024/03/01 17:43:02;;;;;;;;;;;;;;;;;;137659;1272;22970;-77
2024/03/01 17:46:04;;;;;;;;;;;;;;;;;;137586;1272;22356;-77
2024/03/01 17:49:07;;;;;;;;;;;;;;;;;;137581;1272;22533;-77
2024/03/01 17:52:10;;;;;;;;;;;;;;;;;;137576;1272;22546;-77
2024/03/01 17:55:12;;;;;;;;;;;;;;;;;;137616;1272;22394;-78
2024/03/01 17:58:15;;;;;;;;;;;;;;;;;;137600;1272;22287;-78
2024/03/01 18:01:17;;;;;;;;;;;;;;;;;;137608;1272;22381;-78
2024/03/01 18:04:20;;;;;;;;;;;;;;;;;;137592;1272;22513;-78
2024/03/01 18:07:22;;;;;;;;;;;;;;;;;;137594;1272;22535;-80
2024/03/01 18:10:25;;;;;;;;;;;;;;;;;;137591;1272;22359;-79
2024/03/01 18:13:29;;;;;;;;;;;;;;;;;;137621;1272;22510;-80
2024/03/01 18:16:31;;;;;;;;;;;;;;;;;;137621;1272;22888;-79
2024/03/01 18:19:34;;;;;;;;;;;;;;;;;;137625;1272;22489;-79
2024/03/01 18:22:36;;;;;;;;;;;;;;;;;;137695;1272;22349;-81
2024/03/01 18:25:39;;;;;;;;;;;;;;;;;;137566;1272;23120;-78
2024/03/01 18:28:41;;;;;;;;;;;;;;;;;;137437;1272;22493;-77
2024/03/01 18:31:44;;;;;;;;;;;;;;;;;;137049;1272;22595;-80
2024/03/01 18:34:46;;;;;;;;;;;;;;;;;;137646;1272;22272;-79
2024/03/01 18:37:49;;;;;;;;;;;;;;;;;;137538;1272;22549;-79
2024/03/01 18:40:54;;;;;;;;;;;;;;;;;;137643;1272;22319;-79
2024/03/01 18:43:57;;;;;;;;;;;;;;;;;;137577;1272;22542;-79
2024/03/01 18:47:01;;;;;;;;;;;;;;;;;;137651;1272;22497;-79
2024/03/01 18:50:03;;;;;;;;;;;;;;;;;;137375;1268;22513;-78
2024/03/01 18:53:06;;;;;;;;;;;;;;;;;;137644;1272;22502;-79
2024/03/01 18:56:08;;;;;;;;;;;;;;;;;;137383;1272;22501;-80
2024/03/01 18:59:13;;;;;;;;;;;;;;;;;;137647;1272;22524;-79
2024/03/01 19:02:16;;;;;;;;;;;;;;;;;;137565;1272;22507;-79
2024/03/01 19:05:18;;;;;;;;;;;;;;;;;;137450;1272;243363;-80
2024/03/01 19:08:21;;;;;;;;;;;;;;;;;;137731;1272;22371;-80
2024/03/01 19:14:40;;;;;;;;;;;;;;;;;;137010;1270;22548;-79
2024/03/01 19:17:42;;;;;;;;;;;;;;;;;;137047;1278;22520;-80
2024/03/01 19:20:45;;;;;;;;;;;;;;;;;;136922;1278;23287;-79
2024/03/01 19:23:47;;;;;;;;;;;;;;;;;;136987;1278;22610;-79
2024/03/01 19:26:51;;;;;;;;;;;;;;;;;;137048;1278;22525;-80
2024/03/01 19:29:54;;;;;;;;;;;;;;;;;;136851;1278;22524;-80
2024/03/01 19:32:59;;;;;;;;;;;;;;;;;;137031;1278;22526;-79
2024/03/01 19:36:01;;;;;;;;;;;;;;;;;;136968;1278;22554;-79
2024/03/01 19:39:06;;;;;;;;;;;;;;;;;;137027;1266;22505;-79
2024/03/01 19:45:46;;;;;;;;;;;;;;;;;;137013;1278;22629;-80
2024/03/01 19:48:49;;;;;;;;;;;;;;;;;;136913;1278;24733;-79
2024/03/01 19:51:51;;;;;;;;;;;;;;;;;;137407;1272;22508;-79
2024/03/01 19:54:54;;;;;;;;;;;;;;;;;;137599;1272;22553;-79
2024/03/01 19:57:56;;;;;;;;;;;;;;;;;;137474;1272;22877;-80
2024/03/01 20:00:59;;;;;;;;;;;;;;;;;;137617;1272;22602;-79
2024/03/01 20:04:01;;;;;;;;;;;;;;;;;;137653;1272;22805;-79
2024/03/01 20:07:04;;;;;;;;;;;;;;;;;;137637;1272;22309;-79
2024/03/01 20:10:07;;;;;;;;;;;;;;;;;;137580;1272;22963;-79
2024/03/01 20:13:09;;;;;;;;;;;;;;;;;;137635;1272;22283;-79
2024/03/01 20:16:12;;;;;;;;;;;;;;;;;;137622;1272;22412;-79
2024/03/01 20:19:14;;;;;;;;;;;;;;;;;;137621;1272;22323;-79
2024/03/01 20:22:17;;;;;;;;;;;;;;;;;;137652;1272;22333;-80
2024/03/01 20:25:24;;;;;;;;;;;;;;;;;;137597;1272;22546;-79
2024/03/01 20:28:26;;;;;;;;;;;;;;;;;;137658;1272;22326;-79
2024/03/01 20:31:29;;;;;;;;;;;;;;;;;;137646;1272;22424;-80